﻿<?xml version="1.0" encoding="utf-8"?><gpx creator="Garmin Desktop App" version="1.1" xsi:schemaLocation="http://www.topografix.com/GPX/1/1 http://www.topografix.com/GPX/1/1/gpx.xsd http://www.garmin.com/xmlschemas/WaypointExtension/v1 http://www8.garmin.com/xmlschemas/WaypointExtensionv1.xsd http://www.garmin.com/xmlschemas/TrackPointExtension/v1 http://www.garmin.com/xmlschemas/TrackPointExtensionv1.xsd http://www.garmin.com/xmlschemas/GpxExtensions/v3 http://www8.garmin.com/xmlschemas/GpxExtensionsv3.xsd http://www.garmin.com/xmlschemas/ActivityExtension/v1 http://www8.garmin.com/xmlschemas/ActivityExtensionv1.xsd http://www.garmin.com/xmlschemas/AdventuresExtensions/v1 http://www8.garmin.com/xmlschemas/AdventuresExtensionv1.xsd http://www.garmin.com/xmlschemas/PressureExtension/v1 http://www.garmin.com/xmlschemas/PressureExtensionv1.xsd http://www.garmin.com/xmlschemas/TripExtensions/v1 http://www.garmin.com/xmlschemas/TripExtensionsv1.xsd http://www.garmin.com/xmlschemas/TripMetaDataExtensions/v1 http://www.garmin.com/xmlschemas/TripMetaDataExtensionsv1.xsd http://www.garmin.com/xmlschemas/ViaPointTransportationModeExtensions/v1 http://www.garmin.com/xmlschemas/ViaPointTransportationModeExtensionsv1.xsd http://www.garmin.com/xmlschemas/CreationTimeExtension/v1 http://www.garmin.com/xmlschemas/CreationTimeExtensionsv1.xsd http://www.garmin.com/xmlschemas/AccelerationExtension/v1 http://www.garmin.com/xmlschemas/AccelerationExtensionv1.xsd http://www.garmin.com/xmlschemas/PowerExtension/v1 http://www.garmin.com/xmlschemas/PowerExtensionv1.xsd http://www.garmin.com/xmlschemas/VideoExtension/v1 http://www.garmin.com/xmlschemas/VideoExtensionv1.xsd" xmlns="http://www.topografix.com/GPX/1/1" xmlns:xsi="http://www.w3.org/2001/XMLSchema-instance" xmlns:wptx1="http://www.garmin.com/xmlschemas/WaypointExtension/v1" xmlns:gpxtrx="http://www.garmin.com/xmlschemas/GpxExtensions/v3" xmlns:gpxtpx="http://www.garmin.com/xmlschemas/TrackPointExtension/v1" xmlns:gpxx="http://www.garmin.com/xmlschemas/GpxExtensions/v3" xmlns:trp="http://www.garmin.com/xmlschemas/TripExtensions/v1" xmlns:adv="http://www.garmin.com/xmlschemas/AdventuresExtensions/v1" xmlns:prs="http://www.garmin.com/xmlschemas/PressureExtension/v1" xmlns:tmd="http://www.garmin.com/xmlschemas/TripMetaDataExtensions/v1" xmlns:vptm="http://www.garmin.com/xmlschemas/ViaPointTransportationModeExtensions/v1" xmlns:ctx="http://www.garmin.com/xmlschemas/CreationTimeExtension/v1" xmlns:gpxacc="http://www.garmin.com/xmlschemas/AccelerationExtension/v1" xmlns:gpxpx="http://www.garmin.com/xmlschemas/PowerExtension/v1" xmlns:vidx1="http://www.garmin.com/xmlschemas/VideoExtension/v1">

  <metadata>
    <link href="http://www.garmin.com">
      <text>Garmin International</text>
    </link>
    <time>2021-01-08T13:15:27Z</time>
    <bounds maxlat="45.872080028057098" maxlon="8.089759983122349" minlat="45.859910007566214" minlon="8.067620024085045" />
  </metadata>

  <trk>
    <name>cima castello</name>
    <desc>ACTIVE LOG                         </desc>
    <extensions>
      <gpxx:TrackExtension>
        <gpxx:DisplayColor>Red</gpxx:DisplayColor>
      </gpxx:TrackExtension>
    </extensions>
    <trkseg>
      <trkpt lat="45.868919966742396" lon="8.067669980227947">
        <ele>952.79999999999995</ele>
        <time>2011-07-10T05:12:42Z</time>
      </trkpt>
      <trkpt lat="45.868919966742396" lon="8.067660005763173">
        <ele>961</ele>
        <time>2011-07-10T05:12:54Z</time>
      </trkpt>
      <trkpt lat="45.868930025026202" lon="8.067620024085045">
        <ele>978.39999999999998</ele>
        <time>2011-07-10T05:14:15Z</time>
      </trkpt>
      <trkpt lat="45.869000013917685" lon="8.067620024085045">
        <ele>978.39999999999998</ele>
        <time>2011-07-10T05:14:34Z</time>
      </trkpt>
      <trkpt lat="45.869079977273941" lon="8.067709961906076">
        <ele>979.29999999999995</ele>
        <time>2011-07-10T05:14:43Z</time>
      </trkpt>
      <trkpt lat="45.869190031662583" lon="8.068029982969165">
        <ele>984.5</ele>
        <time>2011-07-10T05:15:20Z</time>
      </trkpt>
      <trkpt lat="45.869339983910322" lon="8.068150011822581">
        <ele>1003.4</ele>
        <time>2011-07-10T05:17:16Z</time>
      </trkpt>
      <trkpt lat="45.869339983910322" lon="8.068510014563799">
        <ele>1014.7</ele>
        <time>2011-07-10T05:18:27Z</time>
      </trkpt>
      <trkpt lat="45.869369991123676" lon="8.068730039522052">
        <ele>1026</ele>
        <time>2011-07-10T05:19:32Z</time>
      </trkpt>
      <trkpt lat="45.869360016658902" lon="8.068919973447919">
        <ele>1033.5999999999999</ele>
        <time>2011-07-10T05:20:18Z</time>
      </trkpt>
      <trkpt lat="45.86942003108561" lon="8.0691799800843">
        <ele>1038.5</ele>
        <time>2011-07-10T05:20:51Z</time>
      </trkpt>
      <trkpt lat="45.869330009445548" lon="8.069330016151071">
        <ele>1038.8</ele>
        <time>2011-07-10T05:21:04Z</time>
      </trkpt>
      <trkpt lat="45.869260020554066" lon="8.069439986720681">
        <ele>1038.5</ele>
        <time>2011-07-10T05:21:14Z</time>
      </trkpt>
      <trkpt lat="45.869139991700649" lon="8.069530008360744">
        <ele>1036.3</ele>
        <time>2011-07-10T05:21:27Z</time>
      </trkpt>
      <trkpt lat="45.869039995595813" lon="8.069579964503646">
        <ele>1037.8</ele>
        <time>2011-07-10T05:21:38Z</time>
      </trkpt>
      <trkpt lat="45.868960032239556" lon="8.06965003721416">
        <ele>1038.5</ele>
        <time>2011-07-10T05:22:02Z</time>
      </trkpt>
      <trkpt lat="45.86886003613472" lon="8.069699993357062">
        <ele>1038.8</ele>
        <time>2011-07-10T05:22:16Z</time>
      </trkpt>
      <trkpt lat="45.868760040029883" lon="8.069799989461899">
        <ele>1039.4000000000001</ele>
        <time>2011-07-10T05:22:59Z</time>
      </trkpt>
      <trkpt lat="45.868640011176467" lon="8.069799989461899">
        <ele>1040.3</ele>
        <time>2011-07-10T05:23:24Z</time>
      </trkpt>
      <trkpt lat="45.868589971214533" lon="8.069950025528669">
        <ele>1042.0999999999999</ele>
        <time>2011-07-10T05:23:39Z</time>
      </trkpt>
      <trkpt lat="45.86854001507163" lon="8.070090003311634">
        <ele>1044.5</ele>
        <time>2011-07-10T05:23:50Z</time>
      </trkpt>
      <trkpt lat="45.868480000644922" lon="8.070240039378405">
        <ele>1046.7</ele>
        <time>2011-07-10T05:24:05Z</time>
      </trkpt>
      <trkpt lat="45.868500033393502" lon="8.070380017161369">
        <ele>1049.4000000000001</ele>
        <time>2011-07-10T05:24:16Z</time>
      </trkpt>
      <trkpt lat="45.868500033393502" lon="8.070519994944334">
        <ele>1050</ele>
        <time>2011-07-10T05:24:27Z</time>
      </trkpt>
      <trkpt lat="45.868480000644922" lon="8.070649998262525">
        <ele>1051.3</ele>
        <time>2011-07-10T05:24:39Z</time>
      </trkpt>
      <trkpt lat="45.868570022284985" lon="8.071079989895225">
        <ele>1066.8</ele>
        <time>2011-07-10T05:26:01Z</time>
      </trkpt>
      <trkpt lat="45.868700025603175" lon="8.071130029857159">
        <ele>1071.0999999999999</ele>
        <time>2011-07-10T05:26:25Z</time>
      </trkpt>
      <trkpt lat="45.86884000338614" lon="8.071170011535287">
        <ele>1075.3</ele>
        <time>2011-07-10T05:26:48Z</time>
      </trkpt>
      <trkpt lat="45.869109984487295" lon="8.070979993790388">
        <ele>1086.3</ele>
        <time>2011-07-10T05:27:50Z</time>
      </trkpt>
      <trkpt lat="45.86985002271831" lon="8.070870023220778">
        <ele>1112.5</ele>
        <time>2011-07-10T05:30:08Z</time>
      </trkpt>
      <trkpt lat="45.870089996606112" lon="8.070949986577034">
        <ele>1119.5</ele>
        <time>2011-07-10T05:30:49Z</time>
      </trkpt>
      <trkpt lat="45.870340028777719" lon="8.070930037647486">
        <ele>1128.4000000000001</ele>
        <time>2011-07-10T05:31:32Z</time>
      </trkpt>
      <trkpt lat="45.870429966598749" lon="8.070889972150326">
        <ele>1131.7</ele>
        <time>2011-07-10T05:32:16Z</time>
      </trkpt>
      <trkpt lat="45.870540020987391" lon="8.070859964936972">
        <ele>1135.4000000000001</ele>
        <time>2011-07-10T05:32:39Z</time>
      </trkpt>
      <trkpt lat="45.870589977130294" lon="8.071010001003742">
        <ele>1140.3</ele>
        <time>2011-07-10T05:33:02Z</time>
      </trkpt>
      <trkpt lat="45.87058000266552" lon="8.071200018748641">
        <ele>1146</ele>
        <time>2011-07-10T05:33:40Z</time>
      </trkpt>
      <trkpt lat="45.870759962126613" lon="8.071539988741279">
        <ele>1159.5</ele>
        <time>2011-07-10T05:34:58Z</time>
      </trkpt>
      <trkpt lat="45.870640017092228" lon="8.07150000706315">
        <ele>1164.3</ele>
        <time>2011-07-10T05:35:20Z</time>
      </trkpt>
      <trkpt lat="45.870500039309263" lon="8.071530014276505">
        <ele>1169.5</ele>
        <time>2011-07-10T05:35:52Z</time>
      </trkpt>
      <trkpt lat="45.870440024882555" lon="8.071549963206053">
        <ele>1175.3</ele>
        <time>2011-07-10T05:36:23Z</time>
      </trkpt>
      <trkpt lat="45.87058000266552" lon="8.071690024808049">
        <ele>1179.3</ele>
        <time>2011-07-10T05:36:53Z</time>
      </trkpt>
      <trkpt lat="45.87055996991694" lon="8.07182002812624">
        <ele>1186</ele>
        <time>2011-07-10T05:37:26Z</time>
      </trkpt>
      <trkpt lat="45.870429966598749" lon="8.071839977055788">
        <ele>1190.2</ele>
        <time>2011-07-10T05:37:55Z</time>
      </trkpt>
      <trkpt lat="45.870329970493913" lon="8.071860009804368">
        <ele>1194.5</ele>
        <time>2011-07-10T05:38:22Z</time>
      </trkpt>
      <trkpt lat="45.870470032095909" lon="8.071960005909205">
        <ele>1198.5</ele>
        <time>2011-07-10T05:38:53Z</time>
      </trkpt>
      <trkpt lat="45.870540020987391" lon="8.072169972583652">
        <ele>1206.0999999999999</ele>
        <time>2011-07-10T05:39:35Z</time>
      </trkpt>
      <trkpt lat="45.870510013774037" lon="8.072450011968613">
        <ele>1218</ele>
        <time>2011-07-10T05:40:39Z</time>
      </trkpt>
      <trkpt lat="45.870329970493913" lon="8.072310034185648">
        <ele>1225.3</ele>
        <time>2011-07-10T05:41:18Z</time>
      </trkpt>
      <trkpt lat="45.870310021564364" lon="8.072410030290484">
        <ele>1230.2</ele>
        <time>2011-07-10T05:41:51Z</time>
      </trkpt>
      <trkpt lat="45.870329970493913" lon="8.072570040822029">
        <ele>1235</ele>
        <time>2011-07-10T05:42:13Z</time>
      </trkpt>
      <trkpt lat="45.870370035991073" lon="8.07268001139164">
        <ele>1236.3</ele>
        <time>2011-07-10T05:43:10Z</time>
      </trkpt>
      <trkpt lat="45.870440024882555" lon="8.072819989174604">
        <ele>1240.8</ele>
        <time>2011-07-10T05:43:31Z</time>
      </trkpt>
      <trkpt lat="45.870540020987391" lon="8.072940018028021">
        <ele>1243.5999999999999</ele>
        <time>2011-07-10T05:43:49Z</time>
      </trkpt>
      <trkpt lat="45.870529962703586" lon="8.073119977489114">
        <ele>1245.4000000000001</ele>
        <time>2011-07-10T05:44:05Z</time>
      </trkpt>
      <trkpt lat="45.870510013774037" lon="8.073289962485433">
        <ele>1246.9000000000001</ele>
        <time>2011-07-10T05:44:20Z</time>
      </trkpt>
      <trkpt lat="45.870500039309263" lon="8.073449973016977">
        <ele>1249.4000000000001</ele>
        <time>2011-07-10T05:44:36Z</time>
      </trkpt>
      <trkpt lat="45.870510013774037" lon="8.073579976335168">
        <ele>1252.0999999999999</ele>
        <time>2011-07-10T05:44:51Z</time>
      </trkpt>
      <trkpt lat="45.870519988238811" lon="8.073700005188584">
        <ele>1254.3</ele>
        <time>2011-07-10T05:45:06Z</time>
      </trkpt>
      <trkpt lat="45.870529962703586" lon="8.073830008506775">
        <ele>1255.5</ele>
        <time>2011-07-10T05:45:30Z</time>
      </trkpt>
      <trkpt lat="45.870500039309263" lon="8.073879964649677">
        <ele>1255.2</ele>
        <time>2011-07-10T05:47:40Z</time>
      </trkpt>
      <trkpt lat="45.870500039309263" lon="8.073879964649677">
        <ele>1255.2</ele>
        <time>2011-07-10T05:48:50Z</time>
      </trkpt>
      <trkpt lat="45.870540020987391" lon="8.073820034042001">
        <ele>1255.5</ele>
        <time>2011-07-10T05:48:50Z</time>
      </trkpt>
      <trkpt lat="45.870440024882555" lon="8.073879964649677">
        <ele>1254.3</ele>
        <time>2011-07-10T05:50:14Z</time>
      </trkpt>
      <trkpt lat="45.870359977707267" lon="8.07396998628974">
        <ele>1256.0999999999999</ele>
        <time>2011-07-10T05:50:24Z</time>
      </trkpt>
      <trkpt lat="45.870329970493913" lon="8.074090015143156">
        <ele>1257</ele>
        <time>2011-07-10T05:50:35Z</time>
      </trkpt>
      <trkpt lat="45.870350003242493" lon="8.074220018461347">
        <ele>1256.0999999999999</ele>
        <time>2011-07-10T05:50:46Z</time>
      </trkpt>
      <trkpt lat="45.870270039886236" lon="8.074290007352829">
        <ele>1255.5</ele>
        <time>2011-07-10T05:50:57Z</time>
      </trkpt>
      <trkpt lat="45.870199967175722" lon="8.074369970709086">
        <ele>1254.3</ele>
        <time>2011-07-10T05:51:09Z</time>
      </trkpt>
      <trkpt lat="45.870159985497594" lon="8.074459992349148">
        <ele>1254.5999999999999</ele>
        <time>2011-07-10T05:52:22Z</time>
      </trkpt>
      <trkpt lat="45.87015001103282" lon="8.074459992349148">
        <ele>1253.5999999999999</ele>
        <time>2011-07-10T05:52:49Z</time>
      </trkpt>
      <trkpt lat="45.870229974389076" lon="8.074540039524436">
        <ele>1253.3</ele>
        <time>2011-07-10T05:53:00Z</time>
      </trkpt>
      <trkpt lat="45.87028001435101" lon="8.074650010094047">
        <ele>1253.3</ele>
        <time>2011-07-10T05:53:09Z</time>
      </trkpt>
      <trkpt lat="45.870319996029139" lon="8.074770038947463">
        <ele>1252.7</ele>
        <time>2011-07-10T05:53:19Z</time>
      </trkpt>
      <trkpt lat="45.870440024882555" lon="8.074699966236949">
        <ele>1254.5999999999999</ele>
        <time>2011-07-10T05:53:32Z</time>
      </trkpt>
      <trkpt lat="45.870529962703586" lon="8.074699966236949">
        <ele>1255.5</ele>
        <time>2011-07-10T05:53:44Z</time>
      </trkpt>
      <trkpt lat="45.870570028200746" lon="8.074580021202564">
        <ele>1256.7</ele>
        <time>2011-07-10T05:54:07Z</time>
      </trkpt>
      <trkpt lat="45.870629958808422" lon="8.074489999562502">
        <ele>1257.9000000000001</ele>
        <time>2011-07-10T05:54:30Z</time>
      </trkpt>
      <trkpt lat="45.870719980448484" lon="8.074390003457665">
        <ele>1259.4000000000001</ele>
        <time>2011-07-10T05:54:52Z</time>
      </trkpt>
      <trkpt lat="45.870749987661839" lon="8.074280032888055">
        <ele>1260.3</ele>
        <time>2011-07-10T05:55:17Z</time>
      </trkpt>
      <trkpt lat="45.870859958231449" lon="8.074329989030957">
        <ele>1264.5999999999999</ele>
        <time>2011-07-10T05:55:35Z</time>
      </trkpt>
      <trkpt lat="45.871000019833446" lon="8.074299981817603">
        <ele>1269.2</ele>
        <time>2011-07-10T05:56:01Z</time>
      </trkpt>
      <trkpt lat="45.871109990403056" lon="8.074239967390895">
        <ele>1272.5</ele>
        <time>2011-07-10T05:56:20Z</time>
      </trkpt>
      <trkpt lat="45.871219960972667" lon="8.074290007352829">
        <ele>1272.8</ele>
        <time>2011-07-10T05:56:33Z</time>
      </trkpt>
      <trkpt lat="45.871330015361309" lon="8.074320014566183">
        <ele>1274.4000000000001</ele>
        <time>2011-07-10T05:56:51Z</time>
      </trkpt>
      <trkpt lat="45.87143998593092" lon="8.074390003457665">
        <ele>1276.8</ele>
        <time>2011-07-10T05:57:08Z</time>
      </trkpt>
      <trkpt lat="45.871500000357628" lon="8.074510032311082">
        <ele>1276.8</ele>
        <time>2011-07-10T05:57:19Z</time>
      </trkpt>
      <trkpt lat="45.871599996462464" lon="8.074599970132113">
        <ele>1278.3</ele>
        <time>2011-07-10T05:57:32Z</time>
      </trkpt>
      <trkpt lat="45.871650036424398" lon="8.074719998985529">
        <ele>1278.3</ele>
        <time>2011-07-10T05:57:43Z</time>
      </trkpt>
      <trkpt lat="45.871660010889173" lon="8.074940023943782">
        <ele>1278.3</ele>
        <time>2011-07-10T05:58:02Z</time>
      </trkpt>
      <trkpt lat="45.871799988672137" lon="8.075059968978167">
        <ele>1276.2</ele>
        <time>2011-07-10T05:58:17Z</time>
      </trkpt>
      <trkpt lat="45.871899984776974" lon="8.075130041688681">
        <ele>1275.3</ele>
        <time>2011-07-10T05:58:32Z</time>
      </trkpt>
      <trkpt lat="45.872010039165616" lon="8.075119983404875">
        <ele>1280.2</ele>
        <time>2011-07-10T05:58:55Z</time>
      </trkpt>
      <trkpt lat="45.872080028057098" lon="8.075170023366809">
        <ele>1281.0999999999999</ele>
        <time>2011-07-10T05:59:11Z</time>
      </trkpt>
      <trkpt lat="45.87202001363039" lon="8.07538996450603">
        <ele>1283.5</ele>
        <time>2011-07-10T05:59:34Z</time>
      </trkpt>
      <trkpt lat="45.871939966455102" lon="8.075509993359447">
        <ele>1288.7</ele>
        <time>2011-07-10T05:59:54Z</time>
      </trkpt>
      <trkpt lat="45.871899984776974" lon="8.075609989464283">
        <ele>1292</ele>
        <time>2011-07-10T06:00:21Z</time>
      </trkpt>
      <trkpt lat="45.871880035847425" lon="8.07586002163589">
        <ele>1293.5999999999999</ele>
        <time>2011-07-10T06:00:43Z</time>
      </trkpt>
      <trkpt lat="45.871850028634071" lon="8.076090021058917">
        <ele>1293</ele>
        <time>2011-07-10T06:00:56Z</time>
      </trkpt>
      <trkpt lat="45.871809963136911" lon="8.076329994946718">
        <ele>1294.2</ele>
        <time>2011-07-10T06:01:15Z</time>
      </trkpt>
      <trkpt lat="45.871829995885491" lon="8.076480031013489">
        <ele>1295.0999999999999</ele>
        <time>2011-07-10T06:01:29Z</time>
      </trkpt>
      <trkpt lat="45.87186997756362" lon="8.076629983261228">
        <ele>1299.4000000000001</ele>
        <time>2011-07-10T06:01:48Z</time>
      </trkpt>
      <trkpt lat="45.871880035847425" lon="8.076870040968061">
        <ele>1303.5999999999999</ele>
        <time>2011-07-10T06:02:15Z</time>
      </trkpt>
      <trkpt lat="45.871839970350266" lon="8.077050000429153">
        <ele>1305.2</ele>
        <time>2011-07-10T06:02:28Z</time>
      </trkpt>
      <trkpt lat="45.871850028634071" lon="8.077229959890246">
        <ele>1309.0999999999999</ele>
        <time>2011-07-10T06:02:51Z</time>
      </trkpt>
      <trkpt lat="45.871690018102527" lon="8.077259967103601">
        <ele>1315.8</ele>
        <time>2011-07-10T06:03:34Z</time>
      </trkpt>
      <trkpt lat="45.871690018102527" lon="8.077379995957017">
        <ele>1322.5</ele>
        <time>2011-07-10T06:04:15Z</time>
      </trkpt>
      <trkpt lat="45.871709967032075" lon="8.077619969844818">
        <ele>1329.5</ele>
        <time>2011-07-10T06:05:02Z</time>
      </trkpt>
      <trkpt lat="45.871579963713884" lon="8.077890034765005">
        <ele>1337.8</ele>
        <time>2011-07-10T06:05:55Z</time>
      </trkpt>
      <trkpt lat="45.871530007570982" lon="8.07800997979939">
        <ele>1341.7</ele>
        <time>2011-07-10T06:06:16Z</time>
      </trkpt>
      <trkpt lat="45.871500000357628" lon="8.07813998311758">
        <ele>1346.9000000000001</ele>
        <time>2011-07-10T06:06:34Z</time>
      </trkpt>
      <trkpt lat="45.871539982035756" lon="8.078260011970997">
        <ele>1350.9000000000001</ele>
        <time>2011-07-10T06:08:04Z</time>
      </trkpt>
      <trkpt lat="45.871520033106208" lon="8.078399989753962">
        <ele>1354.2</ele>
        <time>2011-07-10T06:08:38Z</time>
      </trkpt>
      <trkpt lat="45.871390029788017" lon="8.078720010817051">
        <ele>1365.8</ele>
        <time>2011-07-10T06:09:44Z</time>
      </trkpt>
      <trkpt lat="45.871260026469827" lon="8.079119995236397">
        <ele>1379.2</ele>
        <time>2011-07-10T06:10:56Z</time>
      </trkpt>
      <trkpt lat="45.871040001511574" lon="8.079380001872778">
        <ele>1392</ele>
        <time>2011-07-10T06:12:30Z</time>
      </trkpt>
      <trkpt lat="45.870940005406737" lon="8.079570019617677">
        <ele>1399.9000000000001</ele>
        <time>2011-07-10T06:13:23Z</time>
      </trkpt>
      <trkpt lat="45.870909998193383" lon="8.079709997400641">
        <ele>1403.5999999999999</ele>
        <time>2011-07-10T06:13:58Z</time>
      </trkpt>
      <trkpt lat="45.8710300270468" lon="8.079809993505478">
        <ele>1414.3</ele>
        <time>2011-07-10T06:14:55Z</time>
      </trkpt>
      <trkpt lat="45.87113999761641" lon="8.080000011250377">
        <ele>1421.9000000000001</ele>
        <time>2011-07-10T06:15:43Z</time>
      </trkpt>
      <trkpt lat="45.871049975976348" lon="8.08022003620863">
        <ele>1427.7</ele>
        <time>2011-07-10T06:16:24Z</time>
      </trkpt>
      <trkpt lat="45.871130023151636" lon="8.080230010673404">
        <ele>1430.0999999999999</ele>
        <time>2011-07-10T06:16:41Z</time>
      </trkpt>
      <trkpt lat="45.87113999761641" lon="8.080379962921143">
        <ele>1434.0999999999999</ele>
        <time>2011-07-10T06:17:12Z</time>
      </trkpt>
      <trkpt lat="45.871100015938282" lon="8.080499991774559">
        <ele>1439.5999999999999</ele>
        <time>2011-07-10T06:18:45Z</time>
      </trkpt>
      <trkpt lat="45.87113999761641" lon="8.08078003115952">
        <ele>1448.4000000000001</ele>
        <time>2011-07-10T06:19:23Z</time>
      </trkpt>
      <trkpt lat="45.871079983189702" lon="8.081050012260675">
        <ele>1453.5999999999999</ele>
        <time>2011-07-10T06:20:05Z</time>
      </trkpt>
      <trkpt lat="45.870919972658157" lon="8.081069961190224">
        <ele>1460.9000000000001</ele>
        <time>2011-07-10T06:20:50Z</time>
      </trkpt>
      <trkpt lat="45.870919972658157" lon="8.081219997256994">
        <ele>1466.7</ele>
        <time>2011-07-10T06:21:22Z</time>
      </trkpt>
      <trkpt lat="45.870859958231449" lon="8.081400040537119">
        <ele>1473.4000000000001</ele>
        <time>2011-07-10T06:22:12Z</time>
      </trkpt>
      <trkpt lat="45.870819976553321" lon="8.081549992784858">
        <ele>1476.8</ele>
        <time>2011-07-10T06:22:32Z</time>
      </trkpt>
      <trkpt lat="45.870800027623773" lon="8.081770017743111">
        <ele>1481</ele>
        <time>2011-07-10T06:23:03Z</time>
      </trkpt>
      <trkpt lat="45.870800027623773" lon="8.081970009952784">
        <ele>1485.3</ele>
        <time>2011-07-10T06:23:33Z</time>
      </trkpt>
      <trkpt lat="45.870749987661839" lon="8.082109987735748">
        <ele>1488.3</ele>
        <time>2011-07-10T06:23:53Z</time>
      </trkpt>
      <trkpt lat="45.870700031518936" lon="8.082230016589165">
        <ele>1492.5999999999999</ele>
        <time>2011-07-10T06:24:14Z</time>
      </trkpt>
      <trkpt lat="45.87058000266552" lon="8.082430008798838">
        <ele>1501.7</ele>
        <time>2011-07-10T06:27:45Z</time>
      </trkpt>
      <trkpt lat="45.870619984343648" lon="8.082599993795157">
        <ele>1507.8</ele>
        <time>2011-07-10T06:28:25Z</time>
      </trkpt>
      <trkpt lat="45.870529962703586" lon="8.082699989899993">
        <ele>1514.5999999999999</ele>
        <time>2011-07-10T06:29:05Z</time>
      </trkpt>
      <trkpt lat="45.870540020987391" lon="8.082850025966764">
        <ele>1521.9000000000001</ele>
        <time>2011-07-10T06:29:52Z</time>
      </trkpt>
      <trkpt lat="45.8706000354141" lon="8.082990003749728">
        <ele>1525.8</ele>
        <time>2011-07-10T06:30:29Z</time>
      </trkpt>
      <trkpt lat="45.870500039309263" lon="8.082980029284954">
        <ele>1531.5999999999999</ele>
        <time>2011-07-10T06:31:00Z</time>
      </trkpt>
      <trkpt lat="45.870389984920621" lon="8.082999978214502">
        <ele>1535.3</ele>
        <time>2011-07-10T06:31:24Z</time>
      </trkpt>
      <trkpt lat="45.87028001435101" lon="8.083080025389791">
        <ele>1540.2</ele>
        <time>2011-07-10T06:31:58Z</time>
      </trkpt>
      <trkpt lat="45.87028001435101" lon="8.083129981532693">
        <ele>1545.9000000000001</ele>
        <time>2011-07-10T06:33:00Z</time>
      </trkpt>
      <trkpt lat="45.870189992710948" lon="8.083169963210821">
        <ele>1550.8</ele>
        <time>2011-07-10T06:33:19Z</time>
      </trkpt>
      <trkpt lat="45.87012997828424" lon="8.083299966529012">
        <ele>1553.3</ele>
        <time>2011-07-10T06:33:36Z</time>
      </trkpt>
      <trkpt lat="45.870169959962368" lon="8.083399962633848">
        <ele>1555.0999999999999</ele>
        <time>2011-07-10T06:33:54Z</time>
      </trkpt>
      <trkpt lat="45.870169959962368" lon="8.083519991487265">
        <ele>1559.0999999999999</ele>
        <time>2011-07-10T06:34:12Z</time>
      </trkpt>
      <trkpt lat="45.870140036568046" lon="8.083640020340681">
        <ele>1561.2</ele>
        <time>2011-07-10T06:34:29Z</time>
      </trkpt>
      <trkpt lat="45.870120003819466" lon="8.083749990910292">
        <ele>1563.3</ele>
        <time>2011-07-10T06:34:48Z</time>
      </trkpt>
      <trkpt lat="45.870080022141337" lon="8.083859961479902">
        <ele>1565.8</ele>
        <time>2011-07-10T06:35:04Z</time>
      </trkpt>
      <trkpt lat="45.87015001103282" lon="8.083949983119965">
        <ele>1570.3</ele>
        <time>2011-07-10T06:36:25Z</time>
      </trkpt>
      <trkpt lat="45.870169959962368" lon="8.084079986438155">
        <ele>1573.7</ele>
        <time>2011-07-10T06:36:43Z</time>
      </trkpt>
      <trkpt lat="45.870210025459528" lon="8.084209989756346">
        <ele>1578.3</ele>
        <time>2011-07-10T06:37:02Z</time>
      </trkpt>
      <trkpt lat="45.870210025459528" lon="8.084439989179373">
        <ele>1581</ele>
        <time>2011-07-10T06:38:04Z</time>
      </trkpt>
      <trkpt lat="45.870189992710948" lon="8.084620032459498">
        <ele>1583.4000000000001</ele>
        <time>2011-07-10T06:38:20Z</time>
      </trkpt>
      <trkpt lat="45.87015001103282" lon="8.084790017455816">
        <ele>1588.3</ele>
        <time>2011-07-10T06:38:51Z</time>
      </trkpt>
      <trkpt lat="45.869999974966049" lon="8.084990009665489">
        <ele>1592</ele>
        <time>2011-07-10T06:39:50Z</time>
      </trkpt>
      <trkpt lat="45.869750026613474" lon="8.085280023515225">
        <ele>1607.5</ele>
        <time>2011-07-10T06:41:28Z</time>
      </trkpt>
      <trkpt lat="45.869569983333349" lon="8.085499964654446">
        <ele>1616.7</ele>
        <time>2011-07-10T06:42:39Z</time>
      </trkpt>
      <trkpt lat="45.869430005550385" lon="8.085800036787987">
        <ele>1623.4000000000001</ele>
        <time>2011-07-10T06:43:39Z</time>
      </trkpt>
      <trkpt lat="45.869499994441867" lon="8.085949989035726">
        <ele>1631</ele>
        <time>2011-07-10T06:44:34Z</time>
      </trkpt>
      <trkpt lat="45.869560008868575" lon="8.085849992930889">
        <ele>1637.4000000000001</ele>
        <time>2011-07-10T06:45:05Z</time>
      </trkpt>
      <trkpt lat="45.869690012186766" lon="8.085840018466115">
        <ele>1645.3</ele>
        <time>2011-07-10T06:46:02Z</time>
      </trkpt>
      <trkpt lat="45.86969998665154" lon="8.086040010675788">
        <ele>1648.7</ele>
        <time>2011-07-10T06:46:34Z</time>
      </trkpt>
      <trkpt lat="45.869660004973412" lon="8.086279984563589">
        <ele>1650.2</ele>
        <time>2011-07-10T06:47:11Z</time>
      </trkpt>
      <trkpt lat="45.869560008868575" lon="8.086370006203651">
        <ele>1650.8</ele>
        <time>2011-07-10T06:47:28Z</time>
      </trkpt>
      <trkpt lat="45.869430005550385" lon="8.08643002063036">
        <ele>1651.7</ele>
        <time>2011-07-10T06:47:58Z</time>
      </trkpt>
      <trkpt lat="45.869209980592132" lon="8.086700001731515">
        <ele>1660.2</ele>
        <time>2011-07-10T06:49:08Z</time>
      </trkpt>
      <trkpt lat="45.869060028344393" lon="8.086790023371577">
        <ele>1665.7</ele>
        <time>2011-07-10T06:49:54Z</time>
      </trkpt>
      <trkpt lat="45.868900017812848" lon="8.086799997836351">
        <ele>1669.0999999999999</ele>
        <time>2011-07-10T06:50:34Z</time>
      </trkpt>
      <trkpt lat="45.868730032816529" lon="8.086790023371577">
        <ele>1676.0999999999999</ele>
        <time>2011-07-10T06:51:28Z</time>
      </trkpt>
      <trkpt lat="45.868610003963113" lon="8.086769990622997">
        <ele>1680.0999999999999</ele>
        <time>2011-07-10T06:52:03Z</time>
      </trkpt>
      <trkpt lat="45.868459967896342" lon="8.086739983409643">
        <ele>1684.9000000000001</ele>
        <time>2011-07-10T06:52:36Z</time>
      </trkpt>
      <trkpt lat="45.868459967896342" lon="8.08696998283267">
        <ele>1697.4000000000001</ele>
        <time>2011-07-10T06:53:56Z</time>
      </trkpt>
      <trkpt lat="45.868440018966794" lon="8.087109960615635">
        <ele>1706.9000000000001</ele>
        <time>2011-07-10T06:55:02Z</time>
      </trkpt>
      <trkpt lat="45.868340022861958" lon="8.087210040539503">
        <ele>1712.4000000000001</ele>
        <time>2011-07-10T06:55:37Z</time>
      </trkpt>
      <trkpt lat="45.868270033970475" lon="8.087429981678724">
        <ele>1718.2</ele>
        <time>2011-07-10T06:56:31Z</time>
      </trkpt>
      <trkpt lat="45.868340022861958" lon="8.087510028854013">
        <ele>1722.4000000000001</ele>
        <time>2011-07-10T06:56:59Z</time>
      </trkpt>
      <trkpt lat="45.868429960682988" lon="8.087610024958849">
        <ele>1727</ele>
        <time>2011-07-10T06:57:25Z</time>
      </trkpt>
      <trkpt lat="45.868370030075312" lon="8.087799958884716">
        <ele>1738.3</ele>
        <time>2011-07-10T06:58:38Z</time>
      </trkpt>
      <trkpt lat="45.868449993431568" lon="8.087880006060004">
        <ele>1741.9000000000001</ele>
        <time>2011-07-10T06:59:14Z</time>
      </trkpt>
      <trkpt lat="45.868459967896342" lon="8.087959969416261">
        <ele>1745</ele>
        <time>2011-07-10T07:01:26Z</time>
      </trkpt>
      <trkpt lat="45.868310015648603" lon="8.088159961625934">
        <ele>1746.5</ele>
        <time>2011-07-10T07:01:59Z</time>
      </trkpt>
      <trkpt lat="45.868219994008541" lon="8.088319972157478">
        <ele>1749.2</ele>
        <time>2011-07-10T07:02:30Z</time>
      </trkpt>
      <trkpt lat="45.868129972368479" lon="8.088519964367151">
        <ele>1754.0999999999999</ele>
        <time>2011-07-10T07:03:00Z</time>
      </trkpt>
      <trkpt lat="45.868040034547448" lon="8.08873001486063">
        <ele>1756.5999999999999</ele>
        <time>2011-07-10T07:03:33Z</time>
      </trkpt>
      <trkpt lat="45.867910031229258" lon="8.088950039818883">
        <ele>1762.7</ele>
        <time>2011-07-10T07:04:27Z</time>
      </trkpt>
      <trkpt lat="45.867799976840615" lon="8.089209962636232">
        <ele>1771.5</ele>
        <time>2011-07-10T07:05:36Z</time>
      </trkpt>
      <trkpt lat="45.867680031806231" lon="8.089399980381131">
        <ele>1771.8</ele>
        <time>2011-07-10T07:06:21Z</time>
      </trkpt>
      <trkpt lat="45.867560002952814" lon="8.089510034769774">
        <ele>1774.9000000000001</ele>
        <time>2011-07-10T07:06:50Z</time>
      </trkpt>
      <trkpt lat="45.867429999634624" lon="8.089490002021194">
        <ele>1776.7</ele>
        <time>2011-07-10T07:07:17Z</time>
      </trkpt>
      <trkpt lat="45.867330003529787" lon="8.089469969272614">
        <ele>1777</ele>
        <time>2011-07-10T07:07:39Z</time>
      </trkpt>
      <trkpt lat="45.867209974676371" lon="8.089469969272614">
        <ele>1780.9000000000001</ele>
        <time>2011-07-10T07:08:29Z</time>
      </trkpt>
      <trkpt lat="45.867090029641986" lon="8.089410038664937">
        <ele>1784.3</ele>
        <time>2011-07-10T07:09:20Z</time>
      </trkpt>
      <trkpt lat="45.867000008001924" lon="8.089359998703003">
        <ele>1784</ele>
        <time>2011-07-10T07:09:42Z</time>
      </trkpt>
      <trkpt lat="45.866900011897087" lon="8.089350024238229">
        <ele>1784.9000000000001</ele>
        <time>2011-07-10T07:09:58Z</time>
      </trkpt>
      <trkpt lat="45.866800015792251" lon="8.089359998703003">
        <ele>1787.3</ele>
        <time>2011-07-10T07:10:25Z</time>
      </trkpt>
      <trkpt lat="45.866689961403608" lon="8.089350024238229">
        <ele>1786.0999999999999</ele>
        <time>2011-07-10T07:11:19Z</time>
      </trkpt>
      <trkpt lat="45.866600023582578" lon="8.089359998703003">
        <ele>1784.9000000000001</ele>
        <time>2011-07-10T07:11:47Z</time>
      </trkpt>
      <trkpt lat="45.866500027477741" lon="8.089450020343065">
        <ele>1784</ele>
        <time>2011-07-10T07:12:08Z</time>
      </trkpt>
      <trkpt lat="45.866340016946197" lon="8.089510034769774">
        <ele>1780</ele>
        <time>2011-07-10T07:12:43Z</time>
      </trkpt>
      <trkpt lat="45.866259969770908" lon="8.089420013129711">
        <ele>1781.5999999999999</ele>
        <time>2011-07-10T07:12:59Z</time>
      </trkpt>
      <trkpt lat="45.866170031949878" lon="8.089309958741069">
        <ele>1778.5</ele>
        <time>2011-07-10T07:14:19Z</time>
      </trkpt>
      <trkpt lat="45.86608998477459" lon="8.089169980958104">
        <ele>1775.8</ele>
        <time>2011-07-10T07:14:51Z</time>
      </trkpt>
      <trkpt lat="45.865999963134527" lon="8.089129999279976">
        <ele>1777.5999999999999</ele>
        <time>2011-07-10T07:15:03Z</time>
      </trkpt>
      <trkpt lat="45.865919999778271" lon="8.089069984853268">
        <ele>1778.2</ele>
        <time>2011-07-10T07:15:15Z</time>
      </trkpt>
      <trkpt lat="45.865829978138208" lon="8.089020028710365">
        <ele>1778.2</ele>
        <time>2011-07-10T07:15:26Z</time>
      </trkpt>
      <trkpt lat="45.865740040317178" lon="8.088999995961785">
        <ele>1778.5</ele>
        <time>2011-07-10T07:15:45Z</time>
      </trkpt>
      <trkpt lat="45.865590004250407" lon="8.088930007070303">
        <ele>1780</ele>
        <time>2011-07-10T07:17:44Z</time>
      </trkpt>
      <trkpt lat="45.865499982610345" lon="8.088979963213205">
        <ele>1779.4000000000001</ele>
        <time>2011-07-10T07:18:07Z</time>
      </trkpt>
      <trkpt lat="45.865420019254088" lon="8.089030003175139">
        <ele>1780</ele>
        <time>2011-07-10T07:18:31Z</time>
      </trkpt>
      <trkpt lat="45.865320023149252" lon="8.089129999279976">
        <ele>1785.2</ele>
        <time>2011-07-10T07:19:06Z</time>
      </trkpt>
      <trkpt lat="45.865199994295835" lon="8.089190013706684">
        <ele>1788.5999999999999</ele>
        <time>2011-07-10T07:19:33Z</time>
      </trkpt>
      <trkpt lat="45.865049958229065" lon="8.089320017024875">
        <ele>1796.8</ele>
        <time>2011-07-10T07:20:41Z</time>
      </trkpt>
      <trkpt lat="45.864949962124228" lon="8.089339965954423">
        <ele>1802.5999999999999</ele>
        <time>2011-07-10T07:21:20Z</time>
      </trkpt>
      <trkpt lat="45.864839991554618" lon="8.089329991489649">
        <ele>1805.9000000000001</ele>
        <time>2011-07-10T07:21:48Z</time>
      </trkpt>
      <trkpt lat="45.864730020985007" lon="8.089320017024875">
        <ele>1808.4000000000001</ele>
        <time>2011-07-10T07:22:12Z</time>
      </trkpt>
      <trkpt lat="45.864670006558299" lon="8.089199988171458">
        <ele>1807.8</ele>
        <time>2011-07-10T07:22:46Z</time>
      </trkpt>
      <trkpt lat="45.864589959383011" lon="8.089129999279976">
        <ele>1811.7</ele>
        <time>2011-07-10T07:23:06Z</time>
      </trkpt>
      <trkpt lat="45.864519970491529" lon="8.08916000649333">
        <ele>1816</ele>
        <time>2011-07-10T07:23:52Z</time>
      </trkpt>
      <trkpt lat="45.86437001824379" lon="8.08916000649333">
        <ele>1822.7</ele>
        <time>2011-07-10T07:24:37Z</time>
      </trkpt>
      <trkpt lat="45.864259963855147" lon="8.089109966531396">
        <ele>1825.8</ele>
        <time>2011-07-10T07:25:24Z</time>
      </trkpt>
      <trkpt lat="45.864170026034117" lon="8.089039977639914">
        <ele>1830</ele>
        <time>2011-07-10T07:25:50Z</time>
      </trkpt>
      <trkpt lat="45.86407002992928" lon="8.088999995961785">
        <ele>1833.4000000000001</ele>
        <time>2011-07-10T07:26:15Z</time>
      </trkpt>
      <trkpt lat="45.863980008289218" lon="8.088960014283657">
        <ele>1836.7</ele>
        <time>2011-07-10T07:26:41Z</time>
      </trkpt>
      <trkpt lat="45.863889986649156" lon="8.088920032605529">
        <ele>1840.0999999999999</ele>
        <time>2011-07-10T07:27:04Z</time>
      </trkpt>
      <trkpt lat="45.863789990544319" lon="8.088839985430241">
        <ele>1844.3</ele>
        <time>2011-07-10T07:27:30Z</time>
      </trkpt>
      <trkpt lat="45.863689994439483" lon="8.088800003752112">
        <ele>1846.8</ele>
        <time>2011-07-10T07:27:54Z</time>
      </trkpt>
      <trkpt lat="45.863589998334646" lon="8.088820036500692">
        <ele>1852.3</ele>
        <time>2011-07-10T07:28:22Z</time>
      </trkpt>
      <trkpt lat="45.86351003497839" lon="8.088779971003532">
        <ele>1855.9000000000001</ele>
        <time>2011-07-10T07:28:45Z</time>
      </trkpt>
      <trkpt lat="45.863399980589747" lon="8.08873001486063">
        <ele>1860.8</ele>
        <time>2011-07-10T07:29:12Z</time>
      </trkpt>
      <trkpt lat="45.863309958949685" lon="8.088670000433922">
        <ele>1862.5999999999999</ele>
        <time>2011-07-10T07:29:33Z</time>
      </trkpt>
      <trkpt lat="45.863220021128654" lon="8.088570004329085">
        <ele>1866</ele>
        <time>2011-07-10T07:29:58Z</time>
      </trkpt>
      <trkpt lat="45.863099992275238" lon="8.088309997692704">
        <ele>1870.9000000000001</ele>
        <time>2011-07-10T07:30:40Z</time>
      </trkpt>
      <trkpt lat="45.863050036132336" lon="8.088159961625934">
        <ele>1876</ele>
        <time>2011-07-10T07:31:38Z</time>
      </trkpt>
      <trkpt lat="45.862969988957047" lon="8.088059965521097">
        <ele>1879.4000000000001</ele>
        <time>2011-07-10T07:31:57Z</time>
      </trkpt>
      <trkpt lat="45.862900000065565" lon="8.087970027700067">
        <ele>1884</ele>
        <time>2011-07-10T07:32:20Z</time>
      </trkpt>
      <trkpt lat="45.862820036709309" lon="8.087929962202907">
        <ele>1886.0999999999999</ele>
        <time>2011-07-10T07:32:39Z</time>
      </trkpt>
      <trkpt lat="45.862720040604472" lon="8.087940020486713">
        <ele>1890.7</ele>
        <time>2011-07-10T07:33:05Z</time>
      </trkpt>
      <trkpt lat="45.862700007855892" lon="8.088079998269677">
        <ele>1895.2</ele>
        <time>2011-07-10T07:34:08Z</time>
      </trkpt>
      <trkpt lat="45.862700007855892" lon="8.088230034336448">
        <ele>1903.2</ele>
        <time>2011-07-10T07:34:43Z</time>
      </trkpt>
      <trkpt lat="45.862670000642538" lon="8.088389961048961">
        <ele>1906.8</ele>
        <time>2011-07-10T07:35:09Z</time>
      </trkpt>
      <trkpt lat="45.86263001896441" lon="8.088509989902377">
        <ele>1909.3</ele>
        <time>2011-07-10T07:35:36Z</time>
      </trkpt>
      <trkpt lat="45.86263001896441" lon="8.088639993220568">
        <ele>1913.2</ele>
        <time>2011-07-10T07:35:56Z</time>
      </trkpt>
      <trkpt lat="45.862660026177764" lon="8.088779971003532">
        <ele>1915.7</ele>
        <time>2011-07-10T07:36:16Z</time>
      </trkpt>
      <trkpt lat="45.862649967893958" lon="8.088950039818883">
        <ele>1919.3</ele>
        <time>2011-07-10T07:36:51Z</time>
      </trkpt>
      <trkpt lat="45.86263001896441" lon="8.089069984853268">
        <ele>1923.3</ele>
        <time>2011-07-10T07:37:25Z</time>
      </trkpt>
      <trkpt lat="45.862600011751056" lon="8.089220020920038">
        <ele>1928.5</ele>
        <time>2011-07-10T07:37:56Z</time>
      </trkpt>
      <trkpt lat="45.862590037286282" lon="8.089350024238229">
        <ele>1931.8</ele>
        <time>2011-07-10T07:38:15Z</time>
      </trkpt>
      <trkpt lat="45.862590037286282" lon="8.089480027556419">
        <ele>1935.2</ele>
        <time>2011-07-10T07:38:33Z</time>
      </trkpt>
      <trkpt lat="45.862570004537702" lon="8.089599972590804">
        <ele>1936.7</ele>
        <time>2011-07-10T07:38:50Z</time>
      </trkpt>
      <trkpt lat="45.862539997324347" lon="8.089640038087964">
        <ele>1938.2</ele>
        <time>2011-07-10T07:40:19Z</time>
      </trkpt>
      <trkpt lat="45.862519964575768" lon="8.089640038087964">
        <ele>1938.5</ele>
        <time>2011-07-10T07:41:20Z</time>
      </trkpt>
      <trkpt lat="45.862490041181445" lon="8.089650012552738">
        <ele>1939.0999999999999</ele>
        <time>2011-07-10T07:41:55Z</time>
      </trkpt>
      <trkpt lat="45.862539997324347" lon="8.08961003087461">
        <ele>1939.0999999999999</ele>
        <time>2011-07-10T07:42:50Z</time>
      </trkpt>
      <trkpt lat="45.862549971789122" lon="8.089580023661256">
        <ele>1938.5</ele>
        <time>2011-07-10T07:43:43Z</time>
      </trkpt>
      <trkpt lat="45.862539997324347" lon="8.089580023661256">
        <ele>1939.7</ele>
        <time>2011-07-10T07:46:08Z</time>
      </trkpt>
      <trkpt lat="45.862500015646219" lon="8.089650012552738">
        <ele>1940.7</ele>
        <time>2011-07-10T07:47:19Z</time>
      </trkpt>
      <trkpt lat="45.862400019541383" lon="8.089640038087964">
        <ele>1939.0999999999999</ele>
        <time>2011-07-10T07:47:29Z</time>
      </trkpt>
      <trkpt lat="45.86230999790132" lon="8.089640038087964">
        <ele>1938.5</ele>
        <time>2011-07-10T07:47:38Z</time>
      </trkpt>
      <trkpt lat="45.862210001796484" lon="8.089629979804158">
        <ele>1938.5</ele>
        <time>2011-07-10T07:47:50Z</time>
      </trkpt>
      <trkpt lat="45.862119980156422" lon="8.089640038087964">
        <ele>1938.2</ele>
        <time>2011-07-10T07:48:01Z</time>
      </trkpt>
      <trkpt lat="45.862019984051585" lon="8.089640038087964">
        <ele>1938.5</ele>
        <time>2011-07-10T07:48:12Z</time>
      </trkpt>
      <trkpt lat="45.861919987946749" lon="8.089640038087964">
        <ele>1938.2</ele>
        <time>2011-07-10T07:48:21Z</time>
      </trkpt>
      <trkpt lat="45.861829966306686" lon="8.08961003087461">
        <ele>1937.3</ele>
        <time>2011-07-10T07:48:36Z</time>
      </trkpt>
      <trkpt lat="45.86175000295043" lon="8.089559990912676">
        <ele>1936.7</ele>
        <time>2011-07-10T07:48:55Z</time>
      </trkpt>
      <trkpt lat="45.861650006845593" lon="8.089539958164096">
        <ele>1935.8</ele>
        <time>2011-07-10T07:49:26Z</time>
      </trkpt>
      <trkpt lat="45.861559985205531" lon="8.089490002021194">
        <ele>1936.7</ele>
        <time>2011-07-10T07:49:41Z</time>
      </trkpt>
      <trkpt lat="45.861480021849275" lon="8.089459994807839">
        <ele>1938.5</ele>
        <time>2011-07-10T07:50:01Z</time>
      </trkpt>
      <trkpt lat="45.861380025744438" lon="8.089450020343065">
        <ele>1941.9000000000001</ele>
        <time>2011-07-10T07:50:21Z</time>
      </trkpt>
      <trkpt lat="45.861290004104376" lon="8.089469969272614">
        <ele>1942.5</ele>
        <time>2011-07-10T07:50:35Z</time>
      </trkpt>
      <trkpt lat="45.861190007999539" lon="8.089510034769774">
        <ele>1944.3</ele>
        <time>2011-07-10T07:50:54Z</time>
      </trkpt>
      <trkpt lat="45.861109960824251" lon="8.08958999812603">
        <ele>1943.4000000000001</ele>
        <time>2011-07-10T07:51:06Z</time>
      </trkpt>
      <trkpt lat="45.861020023003221" lon="8.089669961482287">
        <ele>1944.9000000000001</ele>
        <time>2011-07-10T07:51:18Z</time>
      </trkpt>
      <trkpt lat="45.860950034111738" lon="8.089759983122349">
        <ele>1944</ele>
        <time>2011-07-10T07:51:33Z</time>
      </trkpt>
      <trkpt lat="45.860899994149804" lon="8.089680019766092">
        <ele>1945.8</ele>
        <time>2011-07-10T07:52:23Z</time>
      </trkpt>
      <trkpt lat="45.860930001363158" lon="8.089539958164096">
        <ele>1948.5999999999999</ele>
        <time>2011-07-10T07:52:39Z</time>
      </trkpt>
      <trkpt lat="45.860960008576512" lon="8.089429987594485">
        <ele>1951.5999999999999</ele>
        <time>2011-07-10T07:53:07Z</time>
      </trkpt>
      <trkpt lat="45.860990015789866" lon="8.089309958741069">
        <ele>1954.0999999999999</ele>
        <time>2011-07-10T07:53:28Z</time>
      </trkpt>
      <trkpt lat="45.861020023003221" lon="8.08918003924191">
        <ele>1957.4000000000001</ele>
        <time>2011-07-10T07:53:51Z</time>
      </trkpt>
      <trkpt lat="45.861080037429929" lon="8.089099992066622">
        <ele>1961.7</ele>
        <time>2011-07-10T07:54:12Z</time>
      </trkpt>
      <trkpt lat="45.861060004681349" lon="8.088990021497011">
        <ele>1965</ele>
        <time>2011-07-10T07:54:34Z</time>
      </trkpt>
      <trkpt lat="45.861009964719415" lon="8.088879967108369">
        <ele>1966.5999999999999</ele>
        <time>2011-07-10T07:54:46Z</time>
      </trkpt>
      <trkpt lat="45.860969983041286" lon="8.088760022073984">
        <ele>1964.7</ele>
        <time>2011-07-10T07:54:58Z</time>
      </trkpt>
      <trkpt lat="45.860950034111738" lon="8.088630018755794">
        <ele>1966.5999999999999</ele>
        <time>2011-07-10T07:55:12Z</time>
      </trkpt>
      <trkpt lat="45.860909968614578" lon="8.088530022650957">
        <ele>1966.9000000000001</ele>
        <time>2011-07-10T07:55:25Z</time>
      </trkpt>
      <trkpt lat="45.860850038006902" lon="8.088440001010895">
        <ele>1965.7</ele>
        <time>2011-07-10T07:55:43Z</time>
      </trkpt>
      <trkpt lat="45.860779965296388" lon="8.088360037654638">
        <ele>1965.7</ele>
        <time>2011-07-10T07:55:56Z</time>
      </trkpt>
      <trkpt lat="45.860720034688711" lon="8.088249983265996">
        <ele>1966.9000000000001</ele>
        <time>2011-07-10T07:56:08Z</time>
      </trkpt>
      <trkpt lat="45.860690027475357" lon="8.088130038231611">
        <ele>1968.0999999999999</ele>
        <time>2011-07-10T07:56:22Z</time>
      </trkpt>
      <trkpt lat="45.860669994726777" lon="8.088010009378195">
        <ele>1969.9000000000001</ele>
        <time>2011-07-10T07:56:39Z</time>
      </trkpt>
      <trkpt lat="45.860639987513423" lon="8.087889980524778">
        <ele>1970.2</ele>
        <time>2011-07-10T07:56:54Z</time>
      </trkpt>
      <trkpt lat="45.860620038583875" lon="8.087759977206588">
        <ele>1969</ele>
        <time>2011-07-10T07:57:09Z</time>
      </trkpt>
      <trkpt lat="45.860590031370521" lon="8.087640032172203">
        <ele>1970.2</ele>
        <time>2011-07-10T07:57:25Z</time>
      </trkpt>
      <trkpt lat="45.860539991408587" lon="8.087559984996915">
        <ele>1971.8</ele>
        <time>2011-07-10T07:57:41Z</time>
      </trkpt>
      <trkpt lat="45.860500009730458" lon="8.087450014427304">
        <ele>1973.3</ele>
        <time>2011-07-10T07:57:55Z</time>
      </trkpt>
      <trkpt lat="45.860500009730458" lon="8.087320011109114">
        <ele>1973.3</ele>
        <time>2011-07-10T07:58:11Z</time>
      </trkpt>
      <trkpt lat="45.860490035265684" lon="8.087190007790923">
        <ele>1975.0999999999999</ele>
        <time>2011-07-10T07:58:27Z</time>
      </trkpt>
      <trkpt lat="45.86046002805233" lon="8.087069978937507">
        <ele>1975.7</ele>
        <time>2011-07-10T07:58:39Z</time>
      </trkpt>
      <trkpt lat="45.86041996255517" lon="8.086950033903122">
        <ele>1976.5999999999999</ele>
        <time>2011-07-10T07:58:50Z</time>
      </trkpt>
      <trkpt lat="45.860390039160848" lon="8.086830005049706">
        <ele>1976.5999999999999</ele>
        <time>2011-07-10T07:59:00Z</time>
      </trkpt>
      <trkpt lat="45.860349973663688" lon="8.086709976196289">
        <ele>1978.5</ele>
        <time>2011-07-10T07:59:13Z</time>
      </trkpt>
      <trkpt lat="45.860370006412268" lon="8.086600005626679">
        <ele>1980.5999999999999</ele>
        <time>2011-07-10T07:59:32Z</time>
      </trkpt>
      <trkpt lat="45.860470002517104" lon="8.086569998413324">
        <ele>1979.0999999999999</ele>
        <time>2011-07-10T07:59:50Z</time>
      </trkpt>
      <trkpt lat="45.860569998621941" lon="8.086600005626679">
        <ele>1978.2</ele>
        <time>2011-07-10T08:00:07Z</time>
      </trkpt>
      <trkpt lat="45.860660020262003" lon="8.086549965664744">
        <ele>1977.2</ele>
        <time>2011-07-10T08:00:27Z</time>
      </trkpt>
      <trkpt lat="45.860700001940131" lon="8.08640998788178">
        <ele>1973.3</ele>
        <time>2011-07-10T08:00:44Z</time>
      </trkpt>
      <trkpt lat="45.860730009153485" lon="8.086300017312169">
        <ele>1970.2</ele>
        <time>2011-07-10T08:01:05Z</time>
      </trkpt>
      <trkpt lat="45.860769990831614" lon="8.086179988458753">
        <ele>1966</ele>
        <time>2011-07-10T08:01:28Z</time>
      </trkpt>
      <trkpt lat="45.860839979723096" lon="8.086059959605336">
        <ele>1964.7</ele>
        <time>2011-07-10T08:01:42Z</time>
      </trkpt>
      <trkpt lat="45.860899994149804" lon="8.085970021784306">
        <ele>1961.7</ele>
        <time>2011-07-10T08:02:06Z</time>
      </trkpt>
      <trkpt lat="45.860879961401224" lon="8.085930040106177">
        <ele>1958.9000000000001</ele>
        <time>2011-07-10T08:03:04Z</time>
      </trkpt>
      <trkpt lat="45.860850038006902" lon="8.085900032892823">
        <ele>1955.9000000000001</ele>
        <time>2011-07-10T08:04:06Z</time>
      </trkpt>
      <trkpt lat="45.860830005258322" lon="8.085780004039407">
        <ele>1951.5999999999999</ele>
        <time>2011-07-10T08:04:21Z</time>
      </trkpt>
      <trkpt lat="45.860879961401224" lon="8.085670033469796">
        <ele>1947.4000000000001</ele>
        <time>2011-07-10T08:04:44Z</time>
      </trkpt>
      <trkpt lat="45.86089001968503" lon="8.085519997403026">
        <ele>1944.9000000000001</ele>
        <time>2011-07-10T08:04:56Z</time>
      </trkpt>
      <trkpt lat="45.860899994149804" lon="8.085369961336255">
        <ele>1944</ele>
        <time>2011-07-10T08:05:06Z</time>
      </trkpt>
      <trkpt lat="45.860850038006902" lon="8.085240041837096">
        <ele>1944</ele>
        <time>2011-07-10T08:05:15Z</time>
      </trkpt>
      <trkpt lat="45.860809972509742" lon="8.085129987448454">
        <ele>1948.3</ele>
        <time>2011-07-10T08:05:30Z</time>
      </trkpt>
      <trkpt lat="45.860769990831614" lon="8.085029991343617">
        <ele>1952.5</ele>
        <time>2011-07-10T08:05:54Z</time>
      </trkpt>
      <trkpt lat="45.860750041902065" lon="8.084899988025427">
        <ele>1957.4000000000001</ele>
        <time>2011-07-10T08:06:20Z</time>
      </trkpt>
      <trkpt lat="45.860709976404905" lon="8.084790017455816">
        <ele>1959.3</ele>
        <time>2011-07-10T08:06:36Z</time>
      </trkpt>
      <trkpt lat="45.860669994726777" lon="8.084679963067174">
        <ele>1961.7</ele>
        <time>2011-07-10T08:06:56Z</time>
      </trkpt>
      <trkpt lat="45.860639987513423" lon="8.084579966962338">
        <ele>1965</ele>
        <time>2011-07-10T08:07:18Z</time>
      </trkpt>
      <trkpt lat="45.860600005835295" lon="8.084460021927953">
        <ele>1969</ele>
        <time>2011-07-10T08:07:42Z</time>
      </trkpt>
      <trkpt lat="45.860579973086715" lon="8.084349967539311">
        <ele>1971.4000000000001</ele>
        <time>2011-07-10T08:08:08Z</time>
      </trkpt>
      <trkpt lat="45.860509984195232" lon="8.084279978647828">
        <ele>1972.4000000000001</ele>
        <time>2011-07-10T08:08:23Z</time>
      </trkpt>
      <trkpt lat="45.86043999530375" lon="8.084209989756346">
        <ele>1973.5999999999999</ele>
        <time>2011-07-10T08:08:42Z</time>
      </trkpt>
      <trkpt lat="45.860379980877042" lon="8.084100019186735">
        <ele>1977.5</ele>
        <time>2011-07-10T08:09:10Z</time>
      </trkpt>
      <trkpt lat="45.860319966450334" lon="8.084060037508607">
        <ele>1980</ele>
        <time>2011-07-10T08:09:36Z</time>
      </trkpt>
      <trkpt lat="45.860230028629303" lon="8.084009997546673">
        <ele>1983.3</ele>
        <time>2011-07-10T08:09:57Z</time>
      </trkpt>
      <trkpt lat="45.860149981454015" lon="8.08396004140377">
        <ele>1984.2</ele>
        <time>2011-07-10T08:10:12Z</time>
      </trkpt>
      <trkpt lat="45.860070018097758" lon="8.083919975906611">
        <ele>1988.2</ele>
        <time>2011-07-10T08:10:30Z</time>
      </trkpt>
      <trkpt lat="45.859979996457696" lon="8.083889968693256">
        <ele>1990</ele>
        <time>2011-07-10T08:10:44Z</time>
      </trkpt>
      <trkpt lat="45.859910007566214" lon="8.083879994228482">
        <ele>1990.5999999999999</ele>
        <time>2011-07-10T08:13:33Z</time>
      </trkpt>
      <trkpt lat="45.859979996457696" lon="8.083900026977062">
        <ele>1988.5</ele>
        <time>2011-07-10T08:14:49Z</time>
      </trkpt>
      <trkpt lat="45.860040010884404" lon="8.083910001441836">
        <ele>1989.7</ele>
        <time>2011-07-10T08:15:21Z</time>
      </trkpt>
    </trkseg>
  </trk>

</gpx>